This is the latest recevied weather packets stored in our database for station/object N8ESC. If no packets are shown the sender has not sent any weather packets the latest 10 day(s).
| Time | Temp. | Humidity | Pressure | Rain* | Wind** | Luminosity | Snow |
|---|---|---|---|---|---|---|---|
| 1777752884 | 10° C | 52% | 1013 hPa | 0 mm | - | 248 W/m² | - |
| 1777752581 | 9.44° C | 53% | 1013 hPa | 0 mm | - | 665 W/m² | - |
| 1777752277 | 9.44° C | 52% | 1013.2 hPa | 0 mm | - | 626 W/m² | - |
| 1777751975 | 10° C | 52% | 1013.1 hPa | 0 mm | - | 332 W/m² | - |
| 1777751368 | 9.44° C | 51% | 1013.4 hPa | 0 mm | - | 656 W/m² | - |
| 1777751065 | 8.89° C | 50% | 1013.4 hPa | 0 mm | - | 317 W/m² | - |
| 1777750761 | 10.56° C | 47% | 1013.4 hPa | 0 mm | - | 286 W/m² | - |
| 1777750458 | 10° C | 50% | 1013.5 hPa | 0 mm | - | 700 W/m² | - |
| 1777749850 | 10.56° C | 46% | 1013.6 hPa | 0 mm | - | 418 W/m² | - |
| 1777749548 | 10.56° C | 46% | 1013.6 hPa | 0 mm | - | 762 W/m² | - |
| 1777749246 | 8.89° C | 50% | 1013.7 hPa | 0 mm | - | 756 W/m² | - |
| 1777748943 | 8.89° C | 51% | 1013.5 hPa | 0 mm | - | 189 W/m² | - |
| 1777748640 | 10° C | 47% | 1013.8 hPa | 0 mm | - | 239 W/m² | - |
| 1777748336 | 9.44° C | 49% | 1013.7 hPa | 0 mm | - | 747 W/m² | - |
| 1777747121 | 9.44° C | 48% | 1014 hPa | 0 mm | - | 846 W/m² | - |
| 1777746512 | 8.89° C | 51% | 1014.3 hPa | 0 mm | - | 794 W/m² | - |
| 1777745905 | 8.33° C | 54% | 1014.2 hPa | 0 mm | - | 345 W/m² | - |
| 1777744694 | 8.89° C | 54% | 1014.5 hPa | 0 mm | - | 808 W/m² | - |
| 1777741053 | 8.89° C | 54% | 1015.2 hPa | 0 mm | - | 732 W/m² | - |
| 1777740446 | 8.89° C | 54% | 1015.2 hPa | 0 mm | - | 752 W/m² | - |
| 1777739840 | 8.33° C | 53% | 1015.2 hPa | 0 mm | - | 724 W/m² | - |
| 1777739234 | 8.33° C | 56% | 1015.6 hPa | 0 mm | - | 490 W/m² | - |
| 1777738628 | 8.33° C | 57% | 1015.7 hPa | 0 mm | - | 742 W/m² | - |
| 1777738324 | 7.78° C | 57% | 1015.5 hPa | 0 mm | - | 696 W/m² | - |
| 1777738022 | 7.78° C | 54% | 1015.7 hPa | 0 mm | - | 718 W/m² | - |
* Rain latest hour (hover to see other rain measurements)
** Current wind speed in m/s (hover to see current wind gust speed)